createdAt,value
2022-08-17T00:00:42.683Z,69.16
2022-08-17T00:03:10.356Z,64.69
2022-08-17T00:05:43.923Z,68.82
2022-08-17T00:08:13.524Z,71.19
2022-08-17T00:10:42.274Z,71.08
2022-08-17T00:13:20.877Z,71.37
2022-08-17T00:15:51.340Z,69.03
2022-08-17T00:19:01.270Z,66.53
2022-08-17T00:21:10.520Z,71.22
2022-08-17T00:23:39.559Z,66.72
2022-08-17T00:26:43.173Z,66.58
2022-08-17T00:29:05.726Z,69.08
2022-08-17T00:31:34.552Z,71.33
2022-08-17T00:34:02.589Z,73.45
2022-08-17T00:36:30.152Z,73.77
2022-08-17T00:38:58.065Z,68.07
2022-08-17T00:41:27.338Z,64.89
2022-08-17T00:43:57.082Z,71.97
2022-08-17T00:46:29.872Z,73.69
2022-08-17T00:48:57.501Z,75.22
2022-08-17T00:51:37.722Z,67.35
2022-08-17T00:54:09.408Z,71.46
2022-08-17T00:56:40.350Z,69.87
2022-08-17T00:59:09.006Z,75.07
2022-08-17T01:01:37.680Z,73.34
2022-08-17T01:04:05.533Z,68.93
2022-08-17T01:06:33.867Z,74.49
2022-08-17T01:09:03.706Z,70.64
2022-08-17T01:11:32.076Z,67.69
2022-08-17T01:13:59.637Z,74.12
2022-08-17T01:16:29.665Z,68.93
2022-08-17T01:18:59.155Z,66.98
2022-08-17T01:21:46.922Z,73.71
2022-08-17T01:24:15.046Z,67.63
2022-08-17T01:26:43.932Z,74.42
2022-08-17T01:29:12.265Z,76.23
2022-08-17T01:31:45.914Z,73.25
2022-08-17T01:34:15.134Z,66.73
2022-08-17T01:36:44.480Z,72.16
2022-08-17T01:39:16.004Z,71.86
2022-08-17T01:41:45.613Z,68.28
2022-08-17T01:44:14.498Z,76.27
2022-08-17T01:46:42.458Z,68.81
2022-08-17T01:49:11.381Z,73.60
2022-08-17T01:51:39.484Z,71.35
2022-08-17T01:54:10.081Z,73.55
2022-08-17T01:56:40.400Z,73.98
2022-08-17T01:59:11.561Z,69.68
2022-08-17T02:01:40.186Z,66.75
2022-08-17T02:04:08.783Z,72.63
2022-08-17T02:06:53.698Z,73.04
2022-08-17T02:09:25.330Z,74.25
2022-08-17T02:11:54.522Z,70.55
2022-08-17T02:14:23.756Z,72.42
2022-08-17T02:16:51.459Z,71.65
2022-08-17T02:19:19.458Z,71.11
2022-08-17T02:21:48.712Z,70.52
2022-08-17T02:24:58.461Z,74.68
2022-08-17T02:27:07.497Z,74.09
2022-08-17T02:29:35.182Z,64.79
2022-08-17T02:32:05.581Z,72.49
2022-08-17T02:34:33.530Z,75.21
2022-08-17T02:37:01.101Z,67.88
2022-08-17T02:39:28.692Z,64.00
2022-08-17T02:42:03.802Z,62.91
2022-08-17T02:44:35.371Z,65.79
2022-08-17T02:47:08.704Z,66.83
2022-08-17T02:49:36.312Z,68.13
2022-08-17T02:52:07.852Z,65.26
2022-08-17T02:54:40.567Z,69.96
2022-08-17T02:57:10.516Z,64.75
2022-08-17T02:59:39.858Z,64.12
2022-08-17T03:02:08.540Z,73.30
2022-08-17T03:04:36.418Z,66.19
2022-08-17T03:07:05.091Z,64.73
2022-08-17T03:09:33.159Z,74.39
2022-08-17T03:12:06.770Z,66.99
2022-08-17T03:14:41.109Z,72.40
2022-08-17T03:17:17.016Z,66.62
2022-08-17T03:19:45.507Z,64.08
2022-08-17T03:22:36.693Z,67.14
2022-08-17T03:25:01.040Z,69.91
2022-08-17T03:27:31.517Z,70.25
2022-08-17T03:29:59.016Z,60.08
2022-08-17T03:32:26.987Z,62.72
2022-08-17T03:34:58.180Z,69.33
2022-08-17T03:37:25.792Z,65.46
2022-08-17T03:39:54.766Z,66.81
2022-08-17T03:42:32.553Z,64.26
2022-08-17T03:45:01.350Z,61.99
2022-08-17T03:47:52.570Z,60.32
2022-08-17T03:50:20.523Z,58.00
2022-08-17T03:53:08.786Z,55.91
2022-08-17T03:55:55.840Z,55.52
2022-08-17T03:58:23.613Z,55.00
2022-08-17T04:00:51.496Z,55.81
2022-08-17T04:03:19.653Z,54.33
2022-08-17T04:05:47.227Z,54.68
2022-08-17T04:08:14.746Z,52.92
2022-08-17T04:10:44.969Z,53.54
2022-08-17T04:13:13.347Z,52.71
2022-08-17T04:15:41.019Z,51.91
2022-08-17T04:18:11.005Z,51.66
2022-08-17T04:20:38.774Z,50.88
2022-08-17T04:23:11.868Z,50.79
2022-08-17T04:25:44.198Z,50.37
2022-08-17T04:28:16.219Z,50.27
2022-08-17T04:30:45.516Z,49.90
2022-08-17T04:33:14.701Z,49.51
2022-08-17T04:35:47.240Z,49.58
2022-08-17T04:38:20.139Z,49.20
2022-08-17T04:41:06.871Z,49.14
2022-08-17T04:43:35.590Z,49.95
2022-08-17T04:48:54.897Z,49.41
2022-08-17T04:51:28.639Z,48.27
2022-08-17T04:54:00.143Z,48.28
2022-08-17T04:59:16.452Z,47.56
2022-08-17T05:01:45.738Z,46.82
2022-08-17T05:04:32.996Z,46.47
2022-08-17T05:07:04.876Z,46.06
2022-08-17T05:09:32.819Z,45.76
2022-08-17T05:12:01.994Z,45.24
2022-08-17T05:14:33.569Z,45.06
2022-08-17T05:17:04.140Z,44.82
2022-08-17T05:19:37.346Z,45.65
2022-08-17T05:22:05.949Z,44.70
2022-08-17T05:24:38.722Z,44.20
2022-08-17T05:27:14.308Z,43.97
2022-08-17T05:29:49.010Z,43.57
2022-08-17T05:32:38.550Z,43.28
2022-08-17T05:35:05.537Z,43.10
2022-08-17T05:37:33.635Z,42.62
2022-08-17T05:40:01.261Z,42.79
2022-08-17T05:42:30.581Z,42.68
2022-08-17T05:44:59.151Z,42.10
2022-08-17T05:47:27.240Z,41.50
2022-08-17T05:49:55.102Z,42.04
2022-08-17T05:52:29.211Z,41.52
2022-08-17T05:55:18.358Z,40.96
2022-08-17T05:58:00.298Z,40.62
2022-08-17T06:00:48.678Z,40.55
2022-08-17T06:03:32.048Z,39.80
2022-08-17T06:05:59.664Z,39.59
2022-08-17T06:08:48.475Z,40.34
2022-08-17T06:11:20.517Z,39.22
2022-08-17T06:13:59.220Z,41.09
2022-08-17T06:16:34.449Z,39.56
2022-08-17T06:19:06.206Z,38.61
2022-08-17T06:21:35.990Z,38.77
2022-08-17T06:24:18.660Z,38.02
2022-08-17T06:26:46.922Z,40.27
2022-08-17T06:29:18.590Z,39.09
2022-08-17T06:31:46.627Z,38.18
2022-08-17T06:34:14.208Z,37.18
2022-08-17T06:36:54.461Z,38.45
2022-08-17T06:39:23.122Z,37.30
2022-08-17T06:42:06.767Z,36.82
2022-08-17T06:44:49.775Z,35.48
2022-08-17T06:47:32.063Z,37.20
2022-08-17T06:50:14.841Z,35.70
2022-08-17T06:52:50.528Z,35.38
2022-08-17T06:55:33.246Z,33.96
2022-08-17T06:58:16.710Z,34.99
2022-08-17T07:00:46.576Z,36.79
2022-08-17T07:03:22.029Z,35.49
2022-08-17T07:05:55.266Z,33.96
2022-08-17T07:08:41.732Z,35.97
2022-08-17T07:11:13.346Z,35.39
2022-08-17T07:13:51.389Z,34.44
2022-08-17T07:16:19.799Z,33.78
2022-08-17T07:18:50.435Z,35.50
2022-08-17T07:21:26.539Z,33.97
2022-08-17T07:23:54.796Z,32.82
2022-08-17T07:26:24.596Z,33.12
2022-08-17T07:28:52.310Z,34.81
2022-08-17T07:31:21.292Z,31.25
2022-08-17T07:34:03.757Z,33.28
2022-08-17T07:36:34.147Z,32.70
2022-08-17T07:39:02.468Z,32.95
2022-08-17T07:41:57.863Z,32.18
2022-08-17T07:44:20.064Z,29.32
2022-08-17T07:47:10.612Z,32.15
2022-08-17T07:49:40.128Z,31.47
2022-08-17T07:52:13.544Z,31.53
2022-08-17T07:55:00.057Z,31.31
2022-08-17T07:57:31.728Z,30.83
2022-08-17T08:00:02.139Z,28.18
2022-08-17T08:02:45.745Z,31.22
2022-08-17T08:05:14.195Z,31.41
2022-08-17T08:08:01.045Z,31.76
2022-08-17T08:10:29.222Z,31.30
2022-08-17T08:13:06.657Z,28.96
2022-08-17T08:15:39.789Z,30.75
2022-08-17T08:18:55.041Z,30.16
2022-08-17T08:21:30.603Z,29.83
2022-08-17T08:23:58.181Z,29.27
2022-08-17T08:26:46.727Z,29.21
2022-08-17T08:29:34.609Z,29.52
2022-08-17T08:32:08.009Z,29.53
2022-08-17T08:35:02.703Z,28.79
2022-08-17T08:37:52.401Z,30.26
2022-08-17T08:40:31.388Z,28.83
2022-08-17T08:43:22.419Z,25.23
2022-08-17T08:45:56.794Z,27.64
2022-08-17T08:48:55.666Z,27.85
2022-08-17T08:51:28.005Z,26.18
2022-08-17T08:53:55.837Z,30.14
2022-08-17T08:57:19.494Z,27.99
2022-08-17T08:59:58.302Z,27.60
2022-08-17T09:02:41.448Z,27.01
2022-08-17T09:05:18.441Z,27.54
2022-08-17T09:07:57.278Z,28.00
2022-08-17T09:10:35.319Z,27.69
2022-08-17T09:13:12.181Z,25.70
2022-08-17T09:15:48.315Z,25.42
2022-08-17T09:19:00.337Z,26.46
2022-08-17T09:21:08.342Z,26.50
2022-08-17T09:23:35.936Z,26.52
2022-08-17T09:26:12.130Z,26.16
2022-08-17T09:28:43.760Z,25.98
2022-08-17T09:31:20.673Z,26.08
2022-08-17T09:33:49.450Z,26.78
2022-08-17T09:36:26.226Z,26.74
2022-08-17T09:39:10.689Z,26.86
2022-08-17T09:41:48.939Z,21.77
2022-08-17T09:44:31.514Z,26.71
2022-08-17T09:47:05.752Z,26.13
2022-08-17T09:49:39.557Z,22.82
2022-08-17T09:52:18.995Z,26.63
2022-08-17T09:54:47.643Z,23.60
2022-08-17T09:57:32.476Z,25.48
2022-08-17T10:00:16.672Z,24.39
2022-08-17T10:06:14.240Z,27.36
2022-08-17T10:08:55.195Z,26.17
2022-08-17T10:11:52.315Z,26.20
2022-08-17T10:14:37.671Z,24.67
2022-08-17T10:17:21.579Z,25.07
2022-08-17T10:19:55.799Z,26.60
2022-08-17T10:22:55.799Z,28.01
2022-08-17T10:25:54.619Z,30.25
2022-08-17T10:28:30.089Z,31.24
2022-08-17T10:31:30.954Z,26.41
2022-08-17T10:34:19.074Z,21.80
2022-08-17T10:36:49.978Z,25.22
2022-08-17T10:39:31.188Z,22.70
2022-08-17T10:42:03.570Z,22.31
2022-08-17T10:44:41.428Z,22.06
2022-08-17T10:47:12.027Z,25.54
2022-08-17T10:49:48.284Z,26.77
2022-08-17T10:52:30.909Z,21.70
2022-08-17T10:55:01.969Z,26.71
2022-08-17T10:57:32.008Z,25.71
2022-08-17T11:00:18.888Z,26.23
2022-08-17T11:02:50.286Z,23.78
2022-08-17T11:05:31.330Z,26.10
2022-08-17T11:08:19.202Z,26.21
2022-08-17T11:11:06.616Z,23.51
2022-08-17T11:13:46.736Z,21.07
2022-08-17T11:16:33.343Z,23.87
2022-08-17T11:19:05.333Z,26.74
2022-08-17T11:21:42.516Z,26.00
2022-08-17T11:24:19.425Z,28.00
2022-08-17T11:27:01.054Z,26.67
2022-08-17T11:29:52.553Z,22.69
2022-08-17T11:32:31.511Z,25.21
2022-08-17T11:35:19.999Z,27.38
2022-08-17T11:37:50.882Z,25.58
2022-08-17T11:40:28.198Z,22.51
2022-08-17T11:43:16.401Z,22.06
2022-08-17T11:46:07.437Z,23.50
2022-08-17T11:48:56.704Z,26.11
2022-08-17T11:51:49.035Z,23.40
2022-08-17T11:54:32.398Z,26.06
2022-08-17T11:57:21.798Z,27.77
2022-08-17T11:59:52.324Z,26.72
2022-08-17T12:02:20.428Z,30.37
2022-08-17T12:05:11.935Z,26.37
2022-08-17T12:07:52.300Z,28.65
2022-08-17T12:10:22.171Z,26.15
2022-08-17T12:12:53.614Z,26.11
2022-08-17T12:15:32.745Z,25.77
2022-08-17T12:18:00.635Z,23.47
2022-08-17T12:20:32.975Z,22.87
2022-08-17T12:23:12.701Z,27.62
2022-08-17T12:25:49.713Z,24.92
2022-08-17T12:28:27.624Z,23.35
2022-08-17T12:31:00.131Z,23.65
2022-08-17T12:33:28.955Z,23.36
2022-08-17T12:36:07.765Z,22.32
2022-08-17T12:38:36.687Z,21.50
2022-08-17T12:41:24.645Z,22.46
2022-08-17T12:44:09.805Z,21.85
2022-08-17T12:46:47.022Z,21.19
2022-08-17T12:49:44.034Z,21.04
2022-08-17T12:52:12.678Z,21.07
2022-08-17T12:54:51.922Z,20.05
2022-08-17T12:57:23.561Z,20.22
2022-08-17T12:59:53.749Z,19.61
2022-08-17T13:02:24.958Z,20.13
2022-08-17T13:04:52.806Z,19.07
2022-08-17T13:07:32.765Z,19.12
2022-08-17T13:10:00.455Z,19.87
2022-08-17T13:12:30.450Z,18.63
2022-08-17T13:14:59.377Z,18.98
2022-08-17T13:17:29.237Z,18.42
2022-08-17T13:19:59.885Z,18.27
2022-08-17T13:22:29.749Z,18.33
2022-08-17T13:25:01.119Z,18.03
2022-08-17T13:27:30.511Z,18.60
2022-08-17T13:30:00.918Z,19.55
2022-08-17T13:32:33.594Z,20.06
2022-08-17T13:35:15.085Z,21.61
2022-08-17T13:38:02.354Z,20.15
2022-08-17T13:40:33.334Z,19.95
2022-08-17T13:43:03.656Z,20.81
2022-08-17T13:45:35.344Z,20.25
2022-08-17T13:48:16.012Z,19.53
2022-08-17T13:50:49.747Z,20.61
2022-08-17T13:53:17.406Z,20.30
2022-08-17T13:55:51.288Z,20.70
2022-08-17T13:58:24.089Z,22.00
2022-08-17T14:00:52.217Z,20.95
2022-08-17T14:03:20.663Z,20.95
2022-08-17T14:05:48.986Z,20.71
2022-08-17T14:11:03.843Z,20.73
2022-08-17T14:13:33.670Z,19.94
2022-08-17T14:16:01.329Z,20.41
2022-08-17T14:18:35.523Z,21.32
2022-08-17T14:21:17.802Z,19.96
2022-08-17T14:23:49.060Z,20.38
2022-08-17T14:26:23.303Z,19.66
2022-08-17T14:28:56.414Z,19.50
2022-08-17T14:31:24.624Z,18.52
2022-08-17T14:33:52.875Z,18.67
2022-08-17T14:36:20.518Z,17.81
2022-08-17T14:38:48.260Z,18.39
2022-08-17T14:41:20.040Z,17.85
2022-08-17T14:43:50.432Z,18.04
2022-08-17T14:46:20.956Z,18.07
2022-08-17T14:48:52.733Z,18.51
2022-08-17T14:51:23.622Z,18.35
2022-08-17T14:53:51.266Z,18.35
2022-08-17T14:56:18.877Z,18.65
2022-08-17T14:58:46.857Z,18.52
2022-08-17T15:01:15.038Z,18.73
2022-08-17T15:03:42.807Z,19.12
2022-08-17T15:06:14.907Z,18.95
2022-08-17T15:08:44.462Z,19.46
2022-08-17T15:11:14.569Z,19.56
2022-08-17T15:13:52.174Z,19.66
2022-08-17T15:16:21.244Z,19.91
2022-08-17T15:18:49.418Z,20.21
2022-08-17T15:21:17.103Z,20.17
2022-08-17T15:23:45.064Z,20.36
2022-08-17T15:26:12.684Z,21.30
2022-08-17T15:28:40.312Z,22.99
2022-08-17T15:31:08.325Z,24.82
2022-08-17T15:33:36.019Z,26.00
2022-08-17T15:36:06.731Z,27.04
2022-08-17T15:38:37.041Z,27.40
2022-08-17T15:41:04.594Z,28.28
2022-08-17T15:43:32.966Z,28.83
2022-08-17T15:46:02.015Z,28.93
2022-08-17T15:48:42.111Z,28.99
2022-08-17T15:51:16.919Z,28.99
2022-08-17T15:53:46.675Z,31.52
2022-08-17T15:56:15.684Z,30.41
2022-08-17T15:58:44.053Z,32.84
2022-08-17T16:01:14.312Z,31.47
2022-08-17T16:04:01.379Z,32.63
2022-08-17T16:06:32.798Z,35.24
2022-08-17T16:09:00.968Z,33.19
2022-08-17T16:11:28.569Z,34.63
2022-08-17T16:13:56.299Z,32.66
2022-08-17T16:16:24.579Z,33.84
2022-08-17T16:18:58.469Z,34.01
2022-08-17T16:21:27.698Z,34.04
2022-08-17T16:24:00.536Z,33.90
2022-08-17T16:26:29.552Z,33.85
2022-08-17T16:28:57.752Z,33.79
2022-08-17T16:31:25.529Z,35.09
2022-08-17T16:36:38.629Z,36.78
2022-08-17T16:39:06.662Z,37.10
2022-08-17T16:41:45.457Z,37.45
2022-08-17T16:44:15.607Z,37.33
2022-08-17T16:46:45.389Z,37.30
2022-08-17T16:49:35.821Z,38.79
2022-08-17T16:52:07.585Z,39.15
2022-08-17T16:54:37.803Z,38.50
2022-08-17T16:57:05.678Z,39.43
2022-08-17T16:59:41.978Z,39.55
2022-08-17T17:02:14.329Z,39.69
2022-08-17T17:04:53.638Z,40.83
2022-08-17T17:07:38.058Z,40.65
2022-08-17T17:10:08.226Z,41.96
2022-08-17T17:13:01.546Z,41.67
2022-08-17T17:15:29.006Z,41.38
2022-08-17T17:18:01.979Z,41.63
2022-08-17T17:20:40.748Z,42.28
2022-08-17T17:23:13.481Z,41.75
2022-08-17T17:25:45.316Z,42.49
2022-08-17T17:28:20.136Z,43.18
2022-08-17T17:30:47.596Z,43.83
2022-08-17T17:33:18.059Z,43.28
2022-08-17T17:35:49.116Z,44.05
2022-08-17T17:38:23.555Z,45.07
2022-08-17T17:41:09.203Z,46.54
2022-08-17T17:43:40.106Z,45.46
2022-08-17T17:46:28.313Z,46.19
2022-08-17T17:49:03.325Z,45.22
2022-08-17T17:52:06.590Z,46.58
2022-08-17T17:54:40.769Z,46.40
2022-08-17T17:57:18.063Z,47.02
2022-08-17T17:59:54.995Z,46.32
2022-08-17T18:05:51.575Z,47.16
2022-08-17T18:08:32.131Z,46.65
2022-08-17T18:11:24.704Z,45.43
2022-08-17T18:14:14.652Z,45.98
2022-08-17T18:16:44.126Z,46.35
2022-08-17T18:19:15.916Z,47.82
2022-08-17T18:21:46.712Z,46.10
2022-08-17T18:24:14.319Z,47.81
2022-08-17T18:26:44.961Z,47.95
2022-08-17T18:29:23.055Z,48.62
2022-08-17T18:32:10.673Z,49.44
2022-08-17T18:34:47.142Z,48.56
2022-08-17T18:37:29.660Z,48.33
2022-08-17T18:39:57.659Z,48.28
2022-08-17T18:42:26.940Z,48.02
2022-08-17T18:44:55.584Z,49.68
2022-08-17T18:47:25.330Z,49.42
2022-08-17T18:49:57.911Z,49.88
2022-08-17T18:52:30.855Z,49.86
2022-08-17T18:55:06.209Z,50.51
2022-08-17T18:57:54.367Z,49.96
2022-08-17T19:00:40.592Z,50.66
2022-08-17T19:03:22.563Z,50.92
2022-08-17T19:05:52.203Z,51.97
2022-08-17T19:08:32.472Z,52.34
2022-08-17T19:11:08.969Z,52.15
2022-08-17T19:13:39.975Z,50.88
2022-08-17T19:16:15.734Z,49.63
2022-08-17T19:18:51.243Z,50.60
2022-08-17T19:21:24.252Z,50.53
2022-08-17T19:24:05.514Z,47.89
2022-08-17T19:26:54.895Z,49.96
2022-08-17T19:29:27.859Z,48.74
2022-08-17T19:31:58.837Z,51.68
2022-08-17T19:34:33.969Z,50.37
2022-08-17T19:37:07.821Z,51.96
2022-08-17T19:39:50.944Z,53.27
2022-08-17T19:42:57.117Z,55.84
2022-08-17T19:45:40.433Z,51.50
2022-08-17T19:48:32.600Z,50.12
2022-08-17T19:51:23.672Z,49.73
2022-08-17T19:54:06.648Z,52.58
2022-08-17T19:57:10.356Z,52.15
2022-08-17T19:59:49.757Z,54.85
2022-08-17T20:02:35.980Z,52.12
2022-08-17T20:05:54.609Z,53.05
2022-08-17T20:16:27.013Z,49.89
2022-08-17T20:19:06.378Z,50.60
2022-08-17T20:21:42.220Z,49.16
2022-08-17T20:24:20.559Z,50.24
2022-08-17T20:27:08.390Z,50.53
2022-08-17T20:29:56.254Z,53.68
2022-08-17T20:32:26.397Z,53.97
2022-08-17T20:35:08.898Z,52.94
2022-08-17T20:37:39.593Z,52.11
2022-08-17T20:40:10.091Z,55.82
2022-08-17T20:42:39.798Z,55.76
2022-08-17T20:45:31.361Z,55.95
2022-08-17T20:48:36.777Z,59.01
2022-08-17T20:51:11.325Z,58.53
2022-08-17T20:53:48.388Z,57.73
2022-08-17T20:56:36.497Z,58.09
2022-08-17T20:59:04.393Z,57.98
2022-08-17T21:01:42.868Z,57.92
2022-08-17T21:04:30.727Z,57.49
2022-08-17T21:07:17.787Z,54.35
2022-08-17T21:09:45.809Z,53.96
2022-08-17T21:12:33.302Z,54.50
2022-08-17T21:15:04.286Z,59.92
2022-08-17T21:17:38.392Z,55.40
2022-08-17T21:20:12.880Z,55.67
2022-08-17T21:22:56.864Z,58.87
2022-08-17T21:25:37.565Z,56.28
2022-08-17T21:28:15.674Z,57.88
2022-08-17T21:30:49.851Z,53.64
2022-08-17T21:33:21.143Z,58.98
2022-08-17T21:35:51.188Z,58.72
2022-08-17T21:38:21.004Z,55.32
2022-08-17T21:40:51.619Z,58.42
2022-08-17T21:43:25.036Z,58.73
2022-08-17T21:46:01.561Z,58.68
2022-08-17T21:48:30.818Z,56.52
2022-08-17T21:50:58.716Z,57.16
2022-08-17T21:53:33.129Z,60.18
2022-08-17T21:56:01.413Z,62.00
2022-08-17T21:58:31.017Z,62.76
2022-08-17T22:01:17.292Z,61.71
2022-08-17T22:03:48.823Z,61.39
2022-08-17T22:06:20.154Z,59.81
2022-08-17T22:09:26.428Z,56.84
2022-08-17T22:12:09.338Z,55.03
2022-08-17T22:14:52.913Z,55.17
2022-08-17T22:17:23.636Z,54.14
2022-08-17T22:20:15.306Z,54.40
2022-08-17T22:23:07.120Z,57.64
2022-08-17T22:25:36.995Z,63.11
2022-08-17T22:28:06.358Z,65.03
2022-08-17T22:30:35.755Z,65.68
2022-08-17T22:33:22.207Z,64.63
2022-08-17T22:35:50.253Z,62.34
2022-08-17T22:38:20.361Z,63.09
2022-08-17T22:40:50.035Z,60.35
2022-08-17T22:43:18.860Z,60.50
2022-08-17T22:45:57.801Z,57.13
2022-08-17T22:48:28.585Z,59.33
2022-08-17T22:51:13.363Z,60.69
2022-08-17T22:54:08.548Z,58.01
2022-08-17T22:56:55.404Z,62.66
2022-08-17T22:59:43.919Z,59.20
2022-08-17T23:02:31.568Z,59.47
2022-08-17T23:05:25.720Z,63.21
2022-08-17T23:07:53.651Z,62.17
2022-08-17T23:10:21.205Z,60.98
2022-08-17T23:12:48.817Z,57.87
2022-08-17T23:15:18.111Z,62.60
2022-08-17T23:17:46.111Z,59.51
2022-08-17T23:20:15.385Z,59.97
2022-08-17T23:22:51.344Z,60.05
2022-08-17T23:25:31.030Z,60.70
2022-08-17T23:28:01.869Z,62.98
2022-08-17T23:30:31.462Z,61.94
2022-08-17T23:33:01.604Z,61.72
2022-08-17T23:35:39.868Z,60.69
2022-08-17T23:38:12.821Z,61.60
2022-08-17T23:40:40.675Z,60.95
2022-08-17T23:43:17.644Z,62.07
2022-08-17T23:45:57.719Z,57.64
2022-08-17T23:48:36.189Z,63.40
2022-08-17T23:51:12.715Z,60.36
2022-08-17T23:53:46.456Z,63.49
2022-08-17T23:56:14.584Z,60.80
2022-08-17T23:58:43.080Z,66.25
